createdAt,value
2022-12-20T00:01:33.710Z,95217.06
2022-12-20T00:04:05.308Z,95189.44
2022-12-20T00:06:35.632Z,95199.50
2022-12-20T00:09:06.503Z,95179.19
2022-12-20T00:11:33.432Z,95190.00
2022-12-20T00:14:00.368Z,95207.72
2022-12-20T00:16:29.283Z,95207.16
2022-12-20T00:18:59.213Z,95208.75
2022-12-20T00:21:27.229Z,95200.09
2022-12-20T00:23:55.749Z,95204.16
2022-12-20T00:26:26.636Z,95183.44
2022-12-20T00:28:54.173Z,95213.63
2022-12-20T00:31:23.836Z,95212.81
2022-12-20T00:33:53.746Z,95200.66
2022-12-20T00:36:23.107Z,95198.25
2022-12-20T00:38:52.503Z,95207.31
2022-12-20T00:41:28.854Z,95189.66
2022-12-20T00:43:56.171Z,95189.56
2022-12-20T00:46:23.796Z,95191.16
2022-12-20T00:48:52.029Z,95198.06
2022-12-20T00:51:32.801Z,95193.84
2022-12-20T00:53:59.651Z,95192.16
2022-12-20T00:56:26.489Z,95184.00
2022-12-20T00:58:54.495Z,95169.22
2022-12-20T01:01:26.268Z,95198.34
2022-12-20T01:03:54.058Z,95202.00
2022-12-20T01:06:22.182Z,95205.34
2022-12-20T01:08:49.111Z,95191.44
2022-12-20T01:11:23.933Z,95203.50
2022-12-20T01:13:56.554Z,95215.50
2022-12-20T01:16:36.437Z,95214.84
2022-12-20T01:19:04.878Z,95213.03
2022-12-20T01:21:31.670Z,95210.59
2022-12-20T01:23:58.452Z,95214.84
2022-12-20T01:26:28.803Z,95210.03
2022-12-20T01:28:59.666Z,95236.81
2022-12-20T01:31:27.642Z,95231.09
2022-12-20T01:33:54.412Z,95228.59
2022-12-20T01:36:28.541Z,95232.00
2022-12-20T01:39:03.657Z,95227.84
2022-12-20T01:41:32.359Z,95223.16
2022-12-20T01:44:16.952Z,95228.72
2022-12-20T01:46:45.962Z,95228.41
2022-12-20T01:49:31.025Z,95228.41
2022-12-20T01:52:14.897Z,95232.66
2022-12-20T01:54:47.787Z,95234.34
2022-12-20T01:57:21.455Z,95226.34
2022-12-20T01:59:50.839Z,95218.59
2022-12-20T02:02:18.462Z,95217.84
2022-12-20T02:04:45.373Z,95210.94
2022-12-20T02:07:19.107Z,95215.75
2022-12-20T02:09:46.756Z,95207.88
2022-12-20T02:12:18.554Z,95185.38
2022-12-20T02:15:00.110Z,95190.78
2022-12-20T02:17:54.109Z,95185.53
2022-12-20T02:20:48.500Z,95188.13
2022-12-20T02:23:48.814Z,95175.81
2022-12-20T02:26:40.130Z,95169.69
2022-12-20T02:29:26.074Z,95170.44
2022-12-20T02:32:30.988Z,95150.88
2022-12-20T02:34:57.769Z,95150.88
2022-12-20T02:37:24.612Z,95164.97
2022-12-20T02:39:52.648Z,95177.63
2022-12-20T02:42:24.620Z,95170.97
2022-12-20T02:45:17.834Z,95177.03
2022-12-20T02:48:11.577Z,95181.88
2022-12-20T02:50:40.801Z,95163.56
2022-12-20T02:53:08.624Z,95180.72
2022-12-20T02:55:49.292Z,95183.38
2022-12-20T02:58:36.800Z,95199.19
2022-12-20T03:01:14.405Z,95180.38
2022-12-20T03:03:41.427Z,95169.03
2022-12-20T03:06:08.601Z,95166.38
2022-12-20T03:08:35.845Z,95173.38
2022-12-20T03:11:03.840Z,95157.56
2022-12-20T03:13:30.710Z,95160.13
2022-12-20T03:15:57.663Z,95151.41
2022-12-20T03:18:24.405Z,95148.09
2022-12-20T03:20:51.246Z,95124.94
2022-12-20T03:23:17.991Z,95136.41
2022-12-20T03:25:44.806Z,95140.56
2022-12-20T03:28:11.592Z,95138.16
2022-12-20T03:30:38.380Z,95154.88
2022-12-20T03:33:05.169Z,95130.44
2022-12-20T03:35:32.023Z,95148.72
2022-12-20T03:37:58.803Z,95154.53
2022-12-20T03:40:25.573Z,95152.53
2022-12-20T03:42:52.351Z,95144.88
2022-12-20T03:45:19.204Z,95151.06
2022-12-20T03:47:46.047Z,95134.16
2022-12-20T03:50:13.239Z,95146.38
2022-12-20T03:52:40.386Z,95136.19
2022-12-20T03:55:08.236Z,95120.06
2022-12-20T03:57:35.007Z,95124.22
2022-12-20T04:00:02.019Z,95113.31
2022-12-20T04:02:28.914Z,95103.91
2022-12-20T04:04:55.875Z,95113.22
2022-12-20T04:07:22.611Z,95113.81
2022-12-20T04:09:49.370Z,95117.38
2022-12-20T04:12:16.133Z,95111.16
2022-12-20T04:14:42.890Z,95123.72
2022-12-20T04:17:09.686Z,95109.13
2022-12-20T04:19:36.476Z,95106.53
2022-12-20T04:22:06.114Z,95104.69
2022-12-20T04:24:33.079Z,95103.03
2022-12-20T04:26:59.890Z,95123.91
2022-12-20T04:29:26.691Z,95108.09
2022-12-20T04:31:53.558Z,95107.75
2022-12-20T04:34:20.511Z,95094.56
2022-12-20T04:36:47.325Z,95100.53
2022-12-20T04:39:14.224Z,95095.31
2022-12-20T04:41:40.996Z,95092.53
2022-12-20T04:44:07.819Z,95099.25
2022-12-20T04:46:34.673Z,95092.72
2022-12-20T04:49:01.758Z,95092.72
2022-12-20T04:51:28.967Z,95091.63
2022-12-20T04:53:56.427Z,95095.69
2022-12-20T04:56:27.840Z,95109.81
2022-12-20T04:58:57.891Z,95092.56
2022-12-20T05:01:25.288Z,95072.53
2022-12-20T05:03:52.941Z,95084.81
2022-12-20T05:06:19.969Z,95080.00
2022-12-20T05:08:47.190Z,95084.72
2022-12-20T05:11:14.095Z,95076.22
2022-12-20T05:13:41.347Z,95072.81
2022-12-20T05:16:08.533Z,95077.25
2022-12-20T05:18:35.860Z,95078.72
2022-12-20T05:21:22.762Z,95073.91
2022-12-20T05:24:08.390Z,95084.81
2022-12-20T05:26:37.931Z,95075.69
2022-12-20T05:29:05.863Z,95084.81
2022-12-20T05:31:32.833Z,95045.75
2022-12-20T05:33:59.731Z,95078.00
2022-12-20T05:36:26.630Z,95058.59
2022-12-20T05:38:56.708Z,95055.28
2022-12-20T05:41:28.664Z,95039.47
2022-12-20T05:43:55.668Z,95058.16
2022-12-20T05:46:22.419Z,95047.53
2022-12-20T05:48:49.246Z,95039.22
2022-12-20T05:51:16.120Z,95052.59
2022-12-20T05:53:42.884Z,95037.75
2022-12-20T05:56:09.623Z,95048.34
2022-12-20T05:58:36.634Z,95032.38
2022-12-20T06:01:06.004Z,95042.91
2022-12-20T06:03:33.015Z,95048.63
2022-12-20T06:05:59.893Z,95042.06
2022-12-20T06:08:27.372Z,95044.56
2022-12-20T06:10:54.265Z,95035.50
2022-12-20T06:13:21.198Z,95045.75
2022-12-20T06:15:47.961Z,95058.56
2022-12-20T06:18:14.815Z,95043.25
2022-12-20T06:20:41.552Z,95037.53
2022-12-20T06:23:10.103Z,95039.91
2022-12-20T06:25:38.251Z,95024.03
2022-12-20T06:28:05.887Z,95047.94
2022-12-20T06:30:34.174Z,95037.97
2022-12-20T06:33:02.407Z,95030.69
2022-12-20T06:35:30.244Z,95042.34
2022-12-20T06:37:57.244Z,95028.97
2022-12-20T06:40:26.853Z,95038.63
2022-12-20T06:42:53.693Z,95023.66
2022-12-20T06:45:20.465Z,95039.53
2022-12-20T06:47:47.263Z,95043.03
2022-12-20T06:50:14.139Z,95059.19
2022-12-20T06:52:40.928Z,95036.75
2022-12-20T06:55:08.268Z,95045.78
2022-12-20T06:57:35.057Z,95030.50
2022-12-20T07:00:02.157Z,95038.72
2022-12-20T07:02:29.193Z,95026.97
2022-12-20T07:04:56.020Z,95035.97
2022-12-20T07:07:23.452Z,95023.56
2022-12-20T07:09:50.181Z,95018.41
2022-12-20T07:12:17.103Z,95025.16
2022-12-20T07:14:44.062Z,95030.69
2022-12-20T07:17:14.343Z,95031.78
2022-12-20T07:19:45.702Z,95026.63
2022-12-20T07:22:17.247Z,95029.13
2022-12-20T07:24:44.170Z,95037.53
2022-12-20T07:27:11.739Z,95024.16
2022-12-20T07:29:42.090Z,95025.81
2022-12-20T07:32:09.673Z,95037.91
2022-12-20T07:34:39.402Z,95029.44
2022-12-20T07:37:06.634Z,95022.13
2022-12-20T07:39:33.400Z,95046.69
2022-12-20T07:42:00.324Z,95039.75
2022-12-20T07:44:27.956Z,95025.09
2022-12-20T07:46:55.104Z,95025.94
2022-12-20T07:49:22.318Z,95023.44
2022-12-20T07:51:54.421Z,95027.41
2022-12-20T07:54:31.679Z,95033.03
2022-12-20T07:57:04.411Z,95016.88
2022-12-20T07:59:42.638Z,95030.19
2022-12-20T08:02:15.809Z,95028.81
2022-12-20T08:04:43.396Z,95013.69
2022-12-20T08:07:10.646Z,95004.56
2022-12-20T08:09:42.317Z,95028.09
2022-12-20T08:12:11.121Z,95020.59
2022-12-20T08:14:38.281Z,95040.44
2022-12-20T08:17:05.157Z,95049.59
2022-12-20T08:19:32.723Z,95037.78
2022-12-20T08:21:59.939Z,95041.75
2022-12-20T08:24:26.876Z,95036.28
2022-12-20T08:26:53.707Z,94991.19
2022-12-20T08:29:21.267Z,95017.09
2022-12-20T08:31:50.627Z,95009.56
2022-12-20T08:34:17.895Z,95023.84
2022-12-20T08:36:44.693Z,95016.94
2022-12-20T08:39:11.696Z,94989.88
2022-12-20T08:41:38.637Z,95014.78
2022-12-20T08:44:06.499Z,95016.25
2022-12-20T08:46:33.396Z,94997.81
2022-12-20T08:49:00.207Z,95017.56
2022-12-20T08:51:27.132Z,94997.91
2022-12-20T08:53:54.076Z,94991.88
2022-12-20T08:56:21.533Z,94998.06
2022-12-20T08:58:48.876Z,94974.53
2022-12-20T09:01:19.241Z,94996.78
2022-12-20T09:03:46.770Z,94997.84
2022-12-20T09:06:20.534Z,94997.47
2022-12-20T09:08:48.523Z,94974.28
2022-12-20T09:11:24.965Z,94996.69
2022-12-20T09:13:54.726Z,94999.63
2022-12-20T09:16:27.181Z,94986.88
2022-12-20T09:19:04.279Z,95004.22
2022-12-20T09:21:32.053Z,94973.13
2022-12-20T09:23:58.854Z,95004.47
2022-12-20T09:26:26.346Z,95013.38
2022-12-20T09:28:54.022Z,94998.56
2022-12-20T09:31:25.012Z,94987.53
2022-12-20T09:33:59.984Z,94995.22
2022-12-20T09:36:29.209Z,95010.78
2022-12-20T09:38:57.152Z,95004.56
2022-12-20T09:41:33.759Z,94990.78
2022-12-20T09:44:14.539Z,94998.88
2022-12-20T09:46:43.071Z,94990.78
2022-12-20T09:49:17.886Z,95003.13
2022-12-20T09:52:13.126Z,95003.34
2022-12-20T09:55:15.100Z,94993.72
2022-12-20T09:58:17.389Z,94982.13
2022-12-20T10:00:53.518Z,94986.16
2022-12-20T10:03:30.600Z,94971.25
2022-12-20T10:06:07.628Z,94986.88
2022-12-20T10:08:46.626Z,94990.72
2022-12-20T10:11:42.057Z,94969.78
2022-12-20T10:14:54.669Z,94977.00
2022-12-20T10:17:34.662Z,94952.13
2022-12-20T10:20:31.252Z,94959.03
2022-12-20T10:23:08.516Z,94943.91
2022-12-20T10:25:36.057Z,94935.16
2022-12-20T10:28:11.678Z,94939.91
2022-12-20T10:30:38.519Z,94938.56
2022-12-20T10:33:05.403Z,94934.81
2022-12-20T10:35:41.061Z,94935.09
2022-12-20T10:38:14.108Z,94927.81
2022-12-20T10:41:20.753Z,94933.72
2022-12-20T10:44:29.910Z,94914.72
2022-12-20T10:47:02.159Z,94904.47
2022-12-20T10:49:34.155Z,94895.72
2022-12-20T10:52:14.258Z,94904.22
2022-12-20T10:54:46.922Z,94909.81
2022-12-20T10:57:24.628Z,94906.38
2022-12-20T10:59:54.888Z,94891.75
2022-12-20T11:02:40.015Z,94894.63
2022-12-20T11:05:11.513Z,94895.81
2022-12-20T11:10:48.067Z,94878.59
2022-12-20T11:13:29.511Z,94891.13
2022-12-20T11:16:01.585Z,94856.31
2022-12-20T11:19:17.461Z,94865.66
2022-12-20T11:22:02.696Z,94861.66
2022-12-20T11:25:20.946Z,94853.41
2022-12-20T11:28:25.466Z,94846.34
2022-12-20T11:31:43.673Z,94835.94
2022-12-20T11:34:35.005Z,94844.59
2022-12-20T11:37:52.211Z,94835.94
2022-12-20T11:40:31.423Z,94824.38
2022-12-20T11:43:04.017Z,94827.25
2022-12-20T11:45:35.527Z,94814.28
2022-12-20T11:48:42.089Z,94834.22
2022-12-20T11:51:26.972Z,94826.91
2022-12-20T11:54:01.689Z,94819.13
2022-12-20T11:56:43.943Z,94816.06
2022-12-20T11:59:24.421Z,94801.50
2022-12-20T12:02:01.687Z,94795.63
2022-12-20T12:04:34.715Z,94794.31
2022-12-20T12:07:13.829Z,94777.38
2022-12-20T12:09:49.979Z,94776.66
2022-12-20T12:12:27.590Z,94767.94
2022-12-20T12:15:17.437Z,94760.38
2022-12-20T12:18:03.798Z,94787.28
2022-12-20T12:20:51.081Z,94785.16
2022-12-20T12:23:28.399Z,94777.91
2022-12-20T12:25:55.194Z,94775.31
2022-12-20T12:28:23.790Z,94772.59
2022-12-20T12:31:19.379Z,94773.31
2022-12-20T12:34:08.928Z,94764.69
2022-12-20T12:36:56.403Z,94748.56
2022-12-20T12:40:02.770Z,94774.84
2022-12-20T12:43:09.717Z,94773.78
2022-12-20T12:45:52.864Z,94757.69
2022-12-20T12:48:22.791Z,94747.06
2022-12-20T12:50:54.325Z,94749.75
2022-12-20T12:53:30.987Z,94765.94
2022-12-20T12:56:12.950Z,94751.97
2022-12-20T12:58:49.045Z,94755.16
2022-12-20T13:01:56.175Z,94768.25
2022-12-20T13:04:30.134Z,94754.03
2022-12-20T13:07:03.901Z,94758.03
2022-12-20T13:09:30.601Z,94757.94
2022-12-20T13:12:02.435Z,94774.38
2022-12-20T13:14:32.293Z,94765.13
2022-12-20T13:17:13.758Z,94760.63
2022-12-20T13:19:52.626Z,94744.78
2022-12-20T13:22:27.023Z,94755.53
2022-12-20T13:25:03.080Z,94753.78
2022-12-20T13:27:29.829Z,94768.66
2022-12-20T13:30:17.436Z,94771.38
2022-12-20T13:32:46.890Z,94754.94
2022-12-20T13:35:26.184Z,94754.75
2022-12-20T13:38:06.202Z,94741.97
2022-12-20T13:40:52.875Z,94738.56
2022-12-20T13:43:19.520Z,94738.44
2022-12-20T13:45:49.664Z,94712.91
2022-12-20T13:48:23.287Z,94721.06
2022-12-20T13:50:53.071Z,94710.03
2022-12-20T13:53:27.297Z,94712.13
2022-12-20T13:55:55.180Z,94698.59
2022-12-20T13:58:25.763Z,94701.16
2022-12-20T14:00:53.991Z,94694.75
2022-12-20T14:03:28.429Z,94691.47
2022-12-20T14:06:19.190Z,94700.47
2022-12-20T14:08:52.192Z,94680.97
2022-12-20T14:11:22.873Z,94690.28
2022-12-20T14:14:04.730Z,94674.38
2022-12-20T14:16:33.721Z,94686.06
2022-12-20T14:19:06.735Z,94689.47
2022-12-20T14:21:37.887Z,94693.00
2022-12-20T14:24:05.129Z,94686.00
2022-12-20T14:26:48.165Z,94674.06
2022-12-20T14:29:24.444Z,94667.69
2022-12-20T14:31:51.266Z,94680.00
2022-12-20T14:34:29.554Z,94683.41
2022-12-20T14:37:32.378Z,94687.63
2022-12-20T14:40:10.935Z,94682.38
2022-12-20T14:42:40.338Z,94689.19
2022-12-20T14:45:21.855Z,94696.25
2022-12-20T14:48:01.982Z,94698.94
2022-12-20T14:50:36.372Z,94708.66
2022-12-20T14:53:03.695Z,94706.00
2022-12-20T14:55:45.456Z,94700.34
2022-12-20T14:58:31.821Z,94699.66
2022-12-20T15:01:16.546Z,94713.38
2022-12-20T15:04:00.403Z,94711.91
2022-12-20T15:06:40.206Z,94702.00
2022-12-20T15:09:07.063Z,94707.22
2022-12-20T15:11:35.983Z,94681.63
2022-12-20T15:14:04.452Z,94680.81
2022-12-20T15:16:31.383Z,94682.72
2022-12-20T15:19:03.207Z,94677.16
2022-12-20T15:21:34.159Z,94681.78
2022-12-20T15:24:07.875Z,94695.75
2022-12-20T15:26:35.635Z,94692.97
2022-12-20T15:29:02.346Z,94685.31
2022-12-20T15:31:33.672Z,94699.59
2022-12-20T15:34:04.936Z,94680.00
2022-12-20T15:36:33.653Z,94693.00
2022-12-20T15:39:12.677Z,94705.31
2022-12-20T15:41:44.077Z,94686.66
2022-12-20T15:44:18.059Z,94690.47
2022-12-20T15:46:44.990Z,94678.66
2022-12-20T15:49:19.411Z,94693.66
2022-12-20T15:51:49.607Z,94685.78
2022-12-20T15:54:37.284Z,94679.75
2022-12-20T15:57:07.767Z,94688.38
2022-12-20T16:02:28.024Z,94690.28
2022-12-20T16:04:55.562Z,94673.16
2022-12-20T16:07:22.853Z,94670.56
2022-12-20T16:09:49.727Z,94690.06
2022-12-20T16:12:21.761Z,94710.84
2022-12-20T16:14:48.579Z,94704.22
2022-12-20T16:17:15.978Z,94702.34
2022-12-20T16:19:44.075Z,94698.44
2022-12-20T16:22:22.860Z,94702.09
2022-12-20T16:24:50.148Z,94702.81
2022-12-20T16:27:16.923Z,94694.53
2022-12-20T16:29:43.753Z,94702.47
2022-12-20T16:32:19.764Z,94702.22
2022-12-20T16:34:47.509Z,94697.50
2022-12-20T16:37:14.359Z,94696.78
2022-12-20T16:39:42.077Z,94694.78
2022-12-20T16:42:17.730Z,94681.59
2022-12-20T16:44:45.686Z,94683.22
2022-12-20T16:47:13.777Z,94696.09
2022-12-20T16:49:47.174Z,94696.19
2022-12-20T16:52:18.872Z,94691.97
2022-12-20T16:54:45.675Z,94689.47
2022-12-20T16:57:12.453Z,94695.28
2022-12-20T16:59:39.265Z,94695.50
2022-12-20T17:02:23.965Z,94699.97
2022-12-20T17:04:51.093Z,94692.44
2022-12-20T17:07:17.953Z,94690.56
2022-12-20T17:09:56.604Z,94672.16
2022-12-20T17:12:23.497Z,94667.66
2022-12-20T17:14:50.286Z,94670.97
2022-12-20T17:17:17.685Z,94667.88
2022-12-20T17:19:44.941Z,94669.66
2022-12-20T17:22:25.253Z,94675.47
2022-12-20T17:24:52.098Z,94685.59
2022-12-20T17:27:19.132Z,94671.19
2022-12-20T17:29:46.012Z,94667.31
2022-12-20T17:32:25.916Z,94669.31
2022-12-20T17:34:53.104Z,94650.41
2022-12-20T17:37:21.085Z,94655.88
2022-12-20T17:39:48.163Z,94662.22
2022-12-20T17:42:15.464Z,94658.69
2022-12-20T17:44:42.598Z,94657.50
2022-12-20T17:47:09.725Z,94653.50
2022-12-20T17:49:36.508Z,94638.41
2022-12-20T17:52:03.845Z,94643.72
2022-12-20T17:54:36.831Z,94643.72
2022-12-20T17:57:12.000Z,94644.78
2022-12-20T17:59:38.737Z,94640.03
2022-12-20T18:02:21.354Z,94645.22
2022-12-20T18:04:48.565Z,94638.41
2022-12-20T18:07:15.378Z,94638.41
2022-12-20T18:09:42.109Z,94639.81
2022-12-20T18:12:11.012Z,94654.19
2022-12-20T18:14:37.776Z,94630.97
2022-12-20T18:17:04.617Z,94646.19
2022-12-20T18:19:31.966Z,94655.16
2022-12-20T18:22:00.089Z,94646.91
2022-12-20T18:24:27.619Z,94654.78
2022-12-20T18:26:54.355Z,94648.06
2022-12-20T18:29:21.621Z,94648.66
2022-12-20T18:31:48.474Z,94634.13
2022-12-20T18:34:15.246Z,94634.84
2022-12-20T18:36:42.293Z,94630.63
2022-12-20T18:39:13.267Z,94634.84
2022-12-20T18:41:43.012Z,94624.00
2022-12-20T18:44:11.431Z,94631.22
2022-12-20T18:46:38.575Z,94624.00
2022-12-20T18:49:05.475Z,94604.91
2022-12-20T18:51:38.398Z,94633.44
2022-12-20T18:54:08.080Z,94627.31
2022-12-20T18:56:38.141Z,94624.72
2022-12-20T18:59:11.378Z,94624.13
2022-12-20T19:01:40.202Z,94627.31
2022-12-20T19:04:08.185Z,94624.72
2022-12-20T19:06:36.994Z,94633.31
2022-12-20T19:09:11.549Z,94621.63
2022-12-20T19:11:38.400Z,94619.03
2022-12-20T19:14:05.665Z,94635.22
2022-12-20T19:16:33.333Z,94616.00
2022-12-20T19:19:04.294Z,94630.28
2022-12-20T19:21:33.925Z,94637.00
2022-12-20T19:24:05.695Z,94634.50
2022-12-20T19:26:34.240Z,94630.13
2022-12-20T19:29:01.054Z,94633.69
2022-12-20T19:31:31.646Z,94630.97
2022-12-20T19:34:02.010Z,94609.84
2022-12-20T19:36:39.722Z,94620.94
2022-12-20T19:39:13.814Z,94618.59
2022-12-20T19:41:40.930Z,94622.72
2022-12-20T19:44:08.947Z,94609.63
2022-12-20T19:46:35.805Z,94618.69
2022-12-20T19:49:02.617Z,94577.66
2022-12-20T19:51:29.466Z,94607.97
2022-12-20T19:53:58.240Z,94606.31
2022-12-20T19:56:28.797Z,94611.50
2022-12-20T19:58:56.510Z,94607.72
2022-12-20T20:01:27.017Z,94604.91
2022-12-20T20:03:56.891Z,94615.75
2022-12-20T20:06:24.432Z,94594.88
2022-12-20T20:08:51.649Z,94602.44
2022-12-20T20:11:21.158Z,94615.84
2022-12-20T20:13:48.360Z,94607.28
2022-12-20T20:16:21.581Z,94612.91
2022-12-20T20:18:49.343Z,94616.00
2022-12-20T20:21:21.436Z,94630.38
2022-12-20T20:23:52.784Z,94634.84
2022-12-20T20:26:24.067Z,94644.75
2022-12-20T20:28:51.895Z,94641.25
2022-12-20T20:31:20.735Z,94632.03
2022-12-20T20:33:47.978Z,94618.09
2022-12-20T20:36:19.485Z,94641.25
2022-12-20T20:38:46.933Z,94629.19
2022-12-20T20:41:14.414Z,94634.16
2022-12-20T20:43:42.267Z,94630.63
2022-12-20T20:46:12.674Z,94633.78
2022-12-20T20:48:40.745Z,94632.97
2022-12-20T20:51:07.597Z,94618.59
2022-12-20T20:53:35.107Z,94623.28
2022-12-20T20:56:03.565Z,94622.59
2022-12-20T20:58:31.088Z,94591.91
2022-12-20T21:01:03.367Z,94619.28
2022-12-20T21:03:31.357Z,94632.97
2022-12-20T21:08:45.437Z,94628.03
2022-12-20T21:11:13.628Z,94615.63
2022-12-20T21:13:40.649Z,94621.44
2022-12-20T21:16:20.638Z,94630.47
2022-12-20T21:18:58.694Z,94621.06
2022-12-20T21:21:26.990Z,94625.19
2022-12-20T21:23:54.899Z,94615.50
2022-12-20T21:26:23.729Z,94636.53
2022-12-20T21:28:50.474Z,94616.69
2022-12-20T21:31:19.876Z,94620.97
2022-12-20T21:33:46.962Z,94617.41
2022-12-20T21:36:17.421Z,94629.56
2022-12-20T21:38:52.661Z,94604.66
2022-12-20T21:41:23.376Z,94628.84
2022-12-20T21:43:51.479Z,94619.88
2022-12-20T21:46:18.356Z,94615.38
2022-12-20T21:48:45.395Z,94624.72
2022-12-20T21:51:15.824Z,94616.81
2022-12-20T21:53:46.293Z,94604.41
2022-12-20T21:56:13.654Z,94615.28
2022-12-20T21:58:40.404Z,94627.06
2022-12-20T22:01:08.494Z,94622.00
2022-12-20T22:03:36.851Z,94627.06
2022-12-20T22:06:04.490Z,94631.06
2022-12-20T22:08:33.082Z,94595.34
2022-12-20T22:11:15.837Z,94622.59
2022-12-20T22:13:43.022Z,94620.00
2022-12-20T22:16:16.579Z,94620.81
2022-12-20T22:18:45.013Z,94627.66
2022-12-20T22:21:14.637Z,94621.16
2022-12-20T22:23:42.384Z,94612.31
2022-12-20T22:26:13.509Z,94602.09
2022-12-20T22:28:49.246Z,94607.13
2022-12-20T22:31:16.998Z,94599.34
2022-12-20T22:33:44.781Z,94617.41
2022-12-20T22:36:15.388Z,94620.97
2022-12-20T22:38:46.124Z,94645.00
2022-12-20T22:41:22.548Z,94631.06
2022-12-20T22:43:50.357Z,94632.03
2022-12-20T22:46:19.017Z,94622.94
2022-12-20T22:48:46.682Z,94622.72
2022-12-20T22:51:24.886Z,94600.53
2022-12-20T22:53:52.230Z,94608.81
2022-12-20T22:56:21.756Z,94616.00
2022-12-20T22:58:49.730Z,94619.78
2022-12-20T23:01:19.498Z,94605.38
2022-12-20T23:03:46.716Z,94603.34
2022-12-20T23:06:17.555Z,94607.03
2022-12-20T23:08:44.782Z,94612.47
2022-12-20T23:11:47.529Z,94618.34
2022-12-20T23:14:37.106Z,94619.78
2022-12-20T23:17:05.411Z,94619.88
2022-12-20T23:19:52.459Z,94620.69
2022-12-20T23:22:39.457Z,94621.78
2022-12-20T23:25:14.579Z,94631.06
2022-12-20T23:27:43.508Z,94628.50
2022-12-20T23:30:15.035Z,94622.38
2022-12-20T23:32:45.312Z,94610.91
2022-12-20T23:35:15.258Z,94622.69
2022-12-20T23:37:42.411Z,94628.59
2022-12-20T23:40:10.911Z,94623.19
2022-12-20T23:42:38.284Z,94624.25
2022-12-20T23:45:05.391Z,94608.19
2022-12-20T23:47:32.680Z,94603.59
2022-12-20T23:49:59.405Z,94605.03
2022-12-20T23:52:26.496Z,94606.81
2022-12-20T23:54:53.284Z,94626.16
2022-12-20T23:57:20.048Z,94618.09
2022-12-20T23:59:46.756Z,94607.59
